Kingsbury, Indiana
Current Conditions -  °F | °C
As of 8:55 PM on Friday 21 Nov 2014 (Local Time) from KPPO Reporting Station
Broken Clouds Broken Clouds  
Wind Chill: 20°   Ceiling: 11000
Heat Index: 26°   Visibility: 10mi
Dew Point: 15°   Wind: 5mph
Humidity: 64%   Direction: 160°SSE
Pressure: 30.3"   Gusts: NA
Location:  41.53°N, 86.7°W
Report Text: KPPO 220255Z AUTO 16004KT 10SM SCT037 BKN110 M04/M09 A3030 RMK AO2 T10361095
Loading
Personal Weather Stations






























Interactive Weather Map New forecast layout! Learn more

10-Day Weather Forecast

Advertisements
Track Severe Weather on mobile